Latest Weather Observations for Adele Island

IDW60801

Issued at 8:33 am WST Friday 31 March 2017 (issued every 30 minutes, with the page automatically refreshed every 10 minutes)

About weather observations | Map of weather stations | Latest weather observations for WA | Other Formats
Station Details ID: 200735 Name: ADELE ISLAND Lat: -15.51 Lon: 123.16 Height: 4.6 m
Data from the previous 72 hours. | See also: Recent months at Adele Island
Date/Time
WST
Temp
°C
App
Temp
°C
Dew
Point
°C
Rel
Hum
%
Delta-T
°C
Wind Press
QNH
hPa
Press
MSL
hPa
Rain since
9am
mm
Dir  Spd
km/h
Gust
km/h
Spd
kts
Gust
kts
31/08:30am - - - - - NE 56 91 30 49 1013.7 1013.6 -
31/08:24am - - - - - NNE 41 91 22 49 1013.0 1012.9 -
31/08:23am - - - - - NNE 35 70 19 38 1013.2 1013.1 -
31/08:18am - - - - - NNW 11 59 6 32 1013.0 1012.9 -
31/08:00am - - - - - WSW 13 19 7 10 1011.5 1011.4 -
31/07:30am - - - - - WSW 17 20 9 11 1011.3 1011.2 -
31/07:00am - - - - - SW 19 24 10 13 1010.8 1010.7 -
31/06:30am - - - - - WSW 17 19 9 10 1010.3 1010.2 -
31/06:00am - - - - - WSW 13 17 7 9 1010.5 1010.4 -
31/05:30am - - - - - WSW 11 13 6 7 1010.7 1010.6 -
31/05:00am - - - - - WSW 15 20 8 11 1010.5 1010.4 -
31/04:30am - - - - - WSW 19 22 10 12 1010.2 1010.1 -
31/04:00am - - - - - WSW 17 20 9 11 1010.0 1009.9 -
31/03:30am - - - - - WSW 19 22 10 12 1010.1 1010.0 -
31/03:00am - - - - - WSW 20 24 11 13 1009.7 1009.6 -
31/02:30am - - - - - SW 20 24 11 13 1009.7 1009.6 -
31/02:00am - - - - - SW 17 22 9 12 1010.1 1010.0 -
31/01:30am - - - - - SW 19 20 10 11 1010.5 1010.4 -
31/01:00am - - - - - SW 17 24 9 13 1010.7 1010.6 -
31/12:30am - - - - - SW 19 24 10 13 1011.1 1011.0 -
31/12:00am - - - - - SW 19 22 10 12 1011.1 1011.0 -
 
Date/Time
WST
Temp
°C
App
Temp
°C
Dew
Point
°C
Rel
Hum
%
Delta-T
°C
Wind Press
QNH
hPa
Press
MSL
hPa
Rain since
9am
mm
Dir  Spd
km/h
Gust
km/h
Spd
kts
Gust
kts
30/11:30pm - - - - - WSW 17 22 9 12 1011.2 1011.1 -
30/11:00pm - - - - - W 15 20 8 11 1011.4 1011.3 -
30/10:30pm - - - - - WSW 17 22 9 12 1011.5 1011.4 -
30/10:00pm - - - - - WNW 13 15 7 8 1011.8 1011.7 -
30/09:30pm - - - - - NW 9 11 5 6 1011.7 1011.6 -
30/09:00pm - - - - - NNW 7 9 4 5 1012.2 1012.1 -
30/08:30pm - - - - - CALM 0 0 0 0 1012.4 1012.3 -
30/08:00pm - - - - - CALM 0 0 0 0 1012.2 1012.1 -
30/07:30pm - - - - - NNW 9 9 5 5 1011.4 1011.3 -
30/07:00pm - - - - - N 7 9 4 5 1011.0 1010.9 -
30/06:30pm - - - - - N 9 9 5 5 1010.6 1010.5 -
30/06:00pm - - - - - W 4 7 2 4 1010.2 1010.1 -
30/05:30pm - - - - - SW 6 7 3 4 1009.6 1009.5 -
30/05:00pm - - - - - NW 6 9 3 5 1009.6 1009.5 -
30/04:30pm - - - - - SSW 11 17 6 9 1009.3 1009.2 -
30/04:00pm - - - - - S 13 17 7 9 1009.1 1009.0 -
30/03:30pm - - - - - SW 11 15 6 8 1008.7 1008.6 -
30/03:00pm - - - - - WSW 13 15 7 8 1008.6 1008.5 -
30/02:30pm - - - - - W 11 15 6 8 1008.6 1008.5 -
30/02:00pm - - - - - SSW 13 17 7 9 1008.7 1008.6 -
30/01:30pm - - - - - SW 11 15 6 8 1009.0 1008.9 -
30/01:00pm - - - - - SW 13 17 7 9 1009.2 1009.1 -
30/12:30pm - - - - - SSW 17 20 9 11 1009.5 1009.4 -
30/12:00pm - - - - - SW 9 15 5 8 1009.9 1009.8 -
30/11:30am - - - - - NNE 9 13 5 7 1010.2 1010.1 -
30/11:00am - - - - - ENE 11 13 6 7 1010.6 1010.5 -
30/10:30am - - - - - NE 7 11 4 6 1011.0 1010.9 -
30/10:00am - - - - - ESE 7 11 4 6 1011.4 1011.3 -
30/09:30am - - - - - SE 13 17 7 9 1011.6 1011.5 -
30/09:00am - - - - - ESE 20 26 11 14 1011.8 1011.7 -
30/08:30am - - - - - SSE 19 22 10 12 1011.8 1011.7 -
30/08:00am - - - - - SSE 20 26 11 14 1011.9 1011.8 -
30/07:30am - - - - - SSE 22 30 12 16 1011.8 1011.7 -
30/07:00am - - - - - SSE 22 28 12 15 1011.5 1011.4 -
30/06:30am - - - - - S 20 26 11 14 1011.3 1011.2 -
30/06:00am - - - - - S 20 26 11 14 1011.1 1011.0 -
30/05:30am - - - - - S 22 30 12 16 1011.0 1010.9 -
30/05:00am - - - - - SSW 24 28 13 15 1010.7 1010.6 -
30/04:30am - - - - - SSW 22 28 12 15 1010.5 1010.4 -
30/04:00am - - - - - SSW 24 30 13 16 1010.4 1010.3 -
30/03:30am - - - - - SW 22 28 12 15 1010.4 1010.3 -
30/03:00am - - - - - SW 24 28 13 15 1010.5 1010.4 -
30/02:30am - - - - - SW 22 28 12 15 1010.4 1010.3 -
30/02:00am - - - - - SW 22 26 12 14 1010.6 1010.5 -
30/01:30am - - - - - SW 20 26 11 14 1010.6 1010.5 -
30/01:00am - - - - - SW 22 28 12 15 1010.6 1010.5 -
30/12:30am - - - - - SW 20 24 11 13 1010.7 1010.6 -
30/12:00am - - - - - SW 19 24 10 13 1010.7 1010.6 -
 
Date/Time
WST
Temp
°C
App
Temp
°C
Dew
Point
°C
Rel
Hum
%
Delta-T
°C
Wind Press
QNH
hPa
Press
MSL
hPa
Rain since
9am
mm
Dir  Spd
km/h
Gust
km/h
Spd
kts
Gust
kts
29/11:30pm - - - - - SW 20 26 11 14 1010.7 1010.6 -
29/11:00pm - - - - - SW 20 26 11 14 1010.7 1010.6 -
29/10:30pm - - - - - SW 19 24 10 13 1011.0 1010.9 -
29/10:00pm - - - - - SW 17 20 9 11 1011.2 1011.1 -
29/09:30pm - - - - - SW 19 22 10 12 1011.2 1011.1 -
29/09:00pm - - - - - SW 19 24 10 13 1011.0 1010.9 -
29/08:30pm - - - - - SW 20 24 11 13 1010.9 1010.8 -
29/08:00pm - - - - - WSW 20 26 11 14 1010.2 1010.1 -
29/07:30pm - - - - - WSW 19 22 10 12 1009.8 1009.7 -
29/07:00pm - - - - - WSW 19 24 10 13 1009.3 1009.2 -
29/06:30pm - - - - - W 19 22 10 12 1008.7 1008.6 -
29/06:00pm - - - - - W 17 20 9 11 1008.4 1008.3 -
29/05:30pm - - - - - WSW 17 24 9 13 1007.9 1007.8 -
29/05:00pm - - - - - WSW 17 22 9 12 1007.9 1007.8 -
29/04:30pm - - - - - WSW 15 20 8 11 1008.0 1007.9 -
29/04:00pm - - - - - WSW 17 20 9 11 1008.0 1007.9 -
29/03:30pm - - - - - WSW 17 22 9 12 1008.2 1008.1 -
29/03:00pm - - - - - SW 17 22 9 12 1008.3 1008.2 -
29/02:30pm - - - - - WSW 17 22 9 12 1008.5 1008.4 -
29/02:00pm - - - - - WSW 19 24 10 13 1008.8 1008.7 -
29/01:30pm - - - - - WSW 15 20 8 11 1009.3 1009.2 -
29/01:00pm - - - - - WSW 17 20 9 11 1009.5 1009.4 -
29/12:30pm - - - - - SW 15 20 8 11 1009.8 1009.7 -
29/12:00pm - - - - - SW 15 20 8 11 1010.0 1009.9 -
29/11:30am - - - - - W 15 19 8 10 1010.6 1010.5 -
29/11:00am - - - - - SW 15 20 8 11 1011.2 1011.1 -
29/10:30am - - - - - WSW 15 19 8 10 1011.4 1011.3 -
29/10:00am - - - - - SSW 15 20 8 11 1011.5 1011.4 -
29/09:30am - - - - - SSW 17 20 9 11 1011.4 1011.3 -
29/09:00am - - - - - SSW 15 19 8 10 1011.6 1011.5 -
29/08:30am - - - - - SSW 15 19 8 10 1011.5 1011.4 -
29/08:00am - - - - - SW 13 19 7 10 1011.5 1011.4 -
29/07:30am - - - - - SSW 13 15 7 8 1011.2 1011.1 -
29/07:00am - - - - - SW 13 17 7 9 1010.8 1010.7 -
29/06:30am - - - - - WSW 13 17 7 9 1010.5 1010.4 -
29/06:00am - - - - - SW 15 19 8 10 1010.1 1010.0 -
29/05:30am - - - - - WSW 17 20 9 11 1009.9 1009.8 -
29/05:00am - - - - - WSW 19 22 10 12 1009.5 1009.4 -
29/04:30am - - - - - WSW 19 20 10 11 1009.3 1009.2 -
29/04:00am - - - - - SW 19 22 10 12 1009.2 1009.1 -
29/03:30am - - - - - WSW 19 22 10 12 1008.9 1008.8 -
29/03:00am - - - - - W 17 20 9 11 1009.0 1008.9 -
29/02:30am - - - - - W 15 19 8 10 1009.0 1008.9 -
29/02:00am - - - - - W 17 22 9 12 1009.1 1009.0 -
29/01:30am - - - - - WNW 15 19 8 10 1009.4 1009.3 -
29/01:00am - - - - - WNW 15 19 8 10 1009.8 1009.7 -
29/12:30am - - - - - W 15 20 8 11 1010.0 1009.9 -
29/12:00am - - - - - WNW 15 19 8 10 1010.2 1010.1 -
 
Date/Time
WST
Temp
°C
App
Temp
°C
Dew
Point
°C
Rel
Hum
%
Delta-T
°C
Wind Press
QNH
hPa
Press
MSL
hPa
Rain since
9am
mm
Dir  Spd
km/h
Gust
km/h
Spd
kts
Gust
kts
28/11:30pm - - - - - W 17 20 9 11 1010.6 1010.5 -
28/11:00pm - - - - - W 17 22 9 12 1010.9 1010.8 -
28/10:30pm - - - - - W 17 20 9 11 1010.9 1010.8 -
28/10:00pm - - - - - WNW 15 17 8 9 1010.9 1010.8 -
28/09:30pm - - - - - W 15 19 8 10 1010.7 1010.6 -
28/09:00pm - - - - - WNW 13 17 7 9 1010.5 1010.4 -
28/08:30pm - - - - - WNW 13 15 7 8 1010.5 1010.4 -
28/08:00pm - - - - - W 15 19 8 10 1010.1 1010.0 -
28/07:30pm - - - - - W 15 19 8 10 1009.7 1009.6 -
28/07:00pm - - - - - W 15 20 8 11 1009.3 1009.2 -
28/06:30pm - - - - - W 19 22 10 12 1008.9 1008.8 -
28/06:00pm - - - - - W 17 20 9 11 1008.6 1008.5 -
28/05:30pm - - - - - W 17 20 9 11 1008.5 1008.4 -
28/05:00pm - - - - - W 15 19 8 10 1008.2 1008.1 -
28/04:30pm - - - - - WNW 13 17 7 9 1008.0 1007.9 -
28/04:00pm - - - - - W 15 20 8 11 1008.1 1008.0 -
28/03:30pm - - - - - W 15 20 8 11 1008.1 1008.0 -
28/03:00pm - - - - - W 15 20 8 11 1008.4 1008.3 -
28/02:30pm - - - - - W 15 19 8 10 1008.6 1008.5 -
28/02:00pm - - - - - W 15 20 8 11 1008.7 1008.6 -
28/01:30pm - - - - - W 15 20 8 11 1009.0 1008.9 -
28/01:00pm - - - - - W 17 20 9 11 1009.4 1009.3 -
28/12:30pm - - - - - W 15 20 8 11 1009.9 1009.8 -
28/12:00pm - - - - - WNW 17 20 9 11 1010.3 1010.2 -
28/11:30am - - - - - W 17 20 9 11 1010.7 1010.6 -
28/11:00am - - - - - W 19 20 10 11 1010.9 1010.8 -
28/10:30am - - - - - W 15 20 8 11 1011.1 1011.0 -
28/10:00am - - - - - W 17 20 9 11 1011.5 1011.4 -
28/09:30am - - - - - W 17 20 9 11 1011.8 1011.7 -
28/09:00am - - - - - WSW 17 22 9 12 1011.7 1011.6 -

Other Formats:

Comma delimited format used in spreadsheet applications
http://www.bom.gov.au/fwo/IDW60801/IDW60801.94210.axf

JavaScript Object Notation format (JSON) in row-major order
http://www.bom.gov.au/fwo/IDW60801/IDW60801.94210.json